createdAt,value
2017-03-18T00:00:33.512Z,95.3
2017-03-18T00:01:36.612Z,95.3
2017-03-18T00:02:38.964Z,95.3
2017-03-18T00:03:41.326Z,95.3
2017-03-18T00:04:44.181Z,95.3
2017-03-18T00:05:46.532Z,95.3
2017-03-18T00:06:49.691Z,95.3
2017-03-18T00:07:59.491Z,95.3
2017-03-18T00:08:54.303Z,95.3
2017-03-18T00:09:57.158Z,95.3
2017-03-18T00:10:59.510Z,95.3
2017-03-18T00:12:02.666Z,95.2
2017-03-18T00:13:05.014Z,95.3
2017-03-18T00:14:07.370Z,95.3
2017-03-18T00:15:10.223Z,95.3
2017-03-18T00:16:12.570Z,95.3
2017-03-18T00:17:15.606Z,95.3
2017-03-18T00:18:17.958Z,95.3
2017-03-18T00:19:20.692Z,95.3
2017-03-18T00:20:22.912Z,95.3
2017-03-18T00:21:25.501Z,95.3
2017-03-18T00:22:28.655Z,95.3
2017-03-18T00:23:31.437Z,95.3
2017-03-18T00:24:33.150Z,95.3
2017-03-18T00:25:36.004Z,95.3
2017-03-18T00:26:38.856Z,95.3
2017-03-18T00:27:41.452Z,95.3
2017-03-18T00:28:43.679Z,95.3
2017-03-18T00:29:46.530Z,95.3
2017-03-18T00:30:48.879Z,95.3
2017-03-18T00:31:51.729Z,95.3
2017-03-18T00:32:54.381Z,95.3
2017-03-18T00:33:56.464Z,95.3
2017-03-18T00:34:59.322Z,95.3
2017-03-18T00:36:02.179Z,95.2
2017-03-18T00:37:04.599Z,95.2
2017-03-18T00:38:07.248Z,95.2
2017-03-18T00:39:09.591Z,95.2
2017-03-18T00:40:12.440Z,95.2
2017-03-18T00:41:15.155Z,95.2
2017-03-18T00:42:17.500Z,95.2
2017-03-18T00:43:20.661Z,95.2
2017-03-18T00:44:22.573Z,95.2
2017-03-18T00:45:25.433Z,95.2
2017-03-18T00:46:27.780Z,95.2
2017-03-18T00:47:30.497Z,95.2
2017-03-18T00:48:33.013Z,95.2
2017-03-18T00:49:35.360Z,95.2
2017-03-18T00:50:38.264Z,95.2
2017-03-18T00:51:40.613Z,95.2
2017-03-18T00:52:43.473Z,95.2
2017-03-18T00:53:46.124Z,95.2
2017-03-18T00:54:48.483Z,95.2
2017-03-18T00:55:51.231Z,95.2
2017-03-18T00:56:53.650Z,95.3
2017-03-18T00:57:56.498Z,95.3
2017-03-18T00:58:58.967Z,95.3
2017-03-18T01:00:01.322Z,95.2
2017-03-18T01:01:04.179Z,95.2
2017-03-18T01:02:06.388Z,95.2
2017-03-18T01:03:09.243Z,95.2
2017-03-18T01:04:11.760Z,95.2
2017-03-18T01:05:14.115Z,95.2
2017-03-18T01:06:16.962Z,95.2
2017-03-18T01:07:19.307Z,95.2
2017-03-18T01:08:22.165Z,95.2
2017-03-18T01:09:24.880Z,95.2
2017-03-18T01:10:27.798Z,95.3
2017-03-18T01:11:30.012Z,95.3
2017-03-18T01:12:32.224Z,95.3
2017-03-18T01:13:35.077Z,95.3
2017-03-18T01:14:37.729Z,95.3
2017-03-18T01:15:40.073Z,95.3
2017-03-18T01:16:42.924Z,95.3
2017-03-18T01:17:45.276Z,95.3
2017-03-18T01:18:48.131Z,95.3
2017-03-18T01:19:50.732Z,95.3
2017-03-18T01:20:53.083Z,95.3
2017-03-18T01:21:55.430Z,95.3
2017-03-18T01:22:58.280Z,95.3
2017-03-18T01:24:00.629Z,95.3
2017-03-18T01:25:03.643Z,95.3
2017-03-18T01:26:05.722Z,95.3
2017-03-18T01:27:08.570Z,95.3
2017-03-18T01:28:10.916Z,95.3
2017-03-18T01:29:13.774Z,95.4
2017-03-18T01:30:16.430Z,95.4
2017-03-18T01:31:18.778Z,95.3
2017-03-18T01:32:21.510Z,95.3
2017-03-18T01:33:23.863Z,95.3
2017-03-18T01:34:26.714Z,95.4
2017-03-18T01:35:29.367Z,95.4
2017-03-18T01:36:31.582Z,95.4
2017-03-18T01:37:34.433Z,95.4
2017-03-18T01:38:36.782Z,95.3
2017-03-18T01:39:39.636Z,95.4
2017-03-18T01:40:42.240Z,95.4
2017-03-18T01:41:44.588Z,95.4
2017-03-18T01:42:47.440Z,95.3
2017-03-18T01:43:49.795Z,95.3
2017-03-18T01:44:52.146Z,95.4
2017-03-18T01:45:55.250Z,95.4
2017-03-18T01:48:00.004Z,95.4
2017-03-18T01:50:05.262Z,95.4
2017-03-18T01:51:07.912Z,95.3
2017-03-18T01:52:10.257Z,95.4
2017-03-18T01:53:13.108Z,95.4
2017-03-18T01:54:15.462Z,95.4
2017-03-18T01:55:18.176Z,95.4
2017-03-18T01:56:20.647Z,95.4
2017-03-18T01:57:23.495Z,95.4
2017-03-18T01:58:25.882Z,95.4
2017-03-18T01:59:28.236Z,95.4
2017-03-18T02:00:31.085Z,95.4
2017-03-18T02:01:33.734Z,95.4
2017-03-18T02:02:36.084Z,95.4
2017-03-18T02:03:38.805Z,95.4
2017-03-18T02:04:41.158Z,95.4
2017-03-18T02:05:44.009Z,95.4
2017-03-18T02:06:46.659Z,95.4
2017-03-18T02:07:49.009Z,95.3
2017-03-18T02:08:51.732Z,95.4
2017-03-18T02:09:54.080Z,95.4
2017-03-18T02:10:56.931Z,95.4
2017-03-18T02:11:59.537Z,95.4
2017-03-18T02:13:01.884Z,95.4
2017-03-18T02:14:04.604Z,95.4
2017-03-18T02:16:09.739Z,95.4
2017-03-18T02:17:12.390Z,95.4
2017-03-18T02:18:14.738Z,95.4
2017-03-18T02:19:17.590Z,95.4
2017-03-18T02:20:19.837Z,95.4
2017-03-18T02:21:22.688Z,95.4
2017-03-18T02:22:25.346Z,95.4
2017-03-18T02:23:27.698Z,95.4
2017-03-18T02:24:30.053Z,95.5
2017-03-18T02:26:35.180Z,95.4
2017-03-18T02:27:38.334Z,95.4
2017-03-18T02:28:40.568Z,95.4
2017-03-18T02:29:42.921Z,95.4
2017-03-18T02:30:45.767Z,95.4
2017-03-18T02:31:48.486Z,95.4
2017-03-18T02:32:51.136Z,95.4
2017-03-18T02:33:53.493Z,95.4
2017-03-18T02:34:55.838Z,95.4
2017-03-18T02:35:58.684Z,95.4
2017-03-18T02:37:01.025Z,95.4
2017-03-18T02:38:04.183Z,95.4
2017-03-18T02:39:06.033Z,95.4
2017-03-18T02:40:08.882Z,95.4
2017-03-18T02:41:11.229Z,95.4
2017-03-18T02:42:14.082Z,95.4
2017-03-18T02:43:17.105Z,95.4
2017-03-18T02:44:18.958Z,95.4
2017-03-18T02:45:21.546Z,95.4
2017-03-18T02:46:24.268Z,95.5
2017-03-18T02:47:26.611Z,95.5
2017-03-18T02:48:29.789Z,95.5
2017-03-18T02:49:32.136Z,95.5
2017-03-18T02:50:34.349Z,95.4
2017-03-18T02:51:37.065Z,95.4
2017-03-18T02:52:39.912Z,95.5
2017-03-18T02:53:42.565Z,95.5
2017-03-18T02:54:44.915Z,95.5
2017-03-18T02:55:47.263Z,95.5
2017-03-18T02:56:50.118Z,95.5
2017-03-18T02:57:52.474Z,95.5
2017-03-18T02:58:55.584Z,95.5
2017-03-18T02:59:57.944Z,95.5
2017-03-18T03:01:00.305Z,95.5
2017-03-18T03:02:02.660Z,95.5
2017-03-18T03:03:05.516Z,95.5
2017-03-18T03:04:08.084Z,95.5
2017-03-18T03:05:10.805Z,95.5
2017-03-18T03:06:13.018Z,95.5
2017-03-18T03:07:15.741Z,95.5
2017-03-18T03:08:18.235Z,95.5
2017-03-18T03:09:21.342Z,95.5
2017-03-18T03:10:23.692Z,95.5
2017-03-18T03:11:26.038Z,95.5
2017-03-18T03:12:28.388Z,95.5
2017-03-18T03:13:31.240Z,95.5
2017-03-18T03:14:33.887Z,95.5
2017-03-18T03:15:36.103Z,95.5
2017-03-18T03:16:38.953Z,95.5
2017-03-18T03:17:41.672Z,95.5
2017-03-18T03:18:44.020Z,95.5
2017-03-18T03:19:46.672Z,95.5
2017-03-18T03:20:49.023Z,95.5
2017-03-18T03:21:51.810Z,95.5
2017-03-18T03:22:54.158Z,95.5
2017-03-18T03:23:57.013Z,95.5
2017-03-18T03:24:59.669Z,95.5
2017-03-18T03:26:02.019Z,95.5
2017-03-18T03:27:04.362Z,95.5
2017-03-18T03:28:07.212Z,95.6
2017-03-18T03:29:09.926Z,95.5
2017-03-18T03:30:12.579Z,95.5
2017-03-18T03:31:14.997Z,95.5
2017-03-18T03:32:17.210Z,95.5
2017-03-18T03:33:20.063Z,95.5
2017-03-18T03:34:22.780Z,95.5
2017-03-18T03:35:25.384Z,95.5
2017-03-18T03:36:27.736Z,95.5
2017-03-18T03:37:30.668Z,95.5
2017-03-18T03:38:00.309Z,95.5
2017-03-18T03:38:32.984Z,95.6
2017-03-18T03:39:35.350Z,95.6
2017-03-18T03:40:38.453Z,95.6
2017-03-18T03:41:40.306Z,95.6
2017-03-18T03:42:43.156Z,95.6
2017-03-18T03:43:45.506Z,95.6
2017-03-18T03:44:48.419Z,95.6
2017-03-18T03:45:51.576Z,95.6
2017-03-18T03:46:53.464Z,95.6
2017-03-18T03:47:55.808Z,95.5
2017-03-18T03:48:58.666Z,95.5
2017-03-18T03:50:00.880Z,95.5
2017-03-18T03:51:04.033Z,95.5
2017-03-18T03:53:08.786Z,95.5
2017-03-18T03:54:11.131Z,95.5
2017-03-18T03:55:13.985Z,95.5
2017-03-18T03:56:16.638Z,95.5
2017-03-18T03:57:19.017Z,95.5
2017-03-18T03:58:21.863Z,95.5
2017-03-18T03:59:24.212Z,95.5
2017-03-18T04:00:26.575Z,95.6
2017-03-18T04:01:29.680Z,95.6
2017-03-18T04:02:32.607Z,95.6
2017-03-18T04:03:34.321Z,95.6
2017-03-18T04:04:37.042Z,95.6
2017-03-18T04:05:39.459Z,95.6
2017-03-18T04:06:42.614Z,95.6
2017-03-18T04:07:44.958Z,95.6
2017-03-18T04:08:47.311Z,95.6
2017-03-18T04:09:50.164Z,95.6
2017-03-18T04:10:52.522Z,95.5
2017-03-18T04:11:55.172Z,95.5
2017-03-18T04:12:57.515Z,95.6
2017-03-18T04:14:00.234Z,95.6
2017-03-18T04:15:02.583Z,95.6
2017-03-18T04:16:05.362Z,95.6
2017-03-18T04:17:07.964Z,95.6
2017-03-18T04:18:10.315Z,95.6
2017-03-18T04:19:13.033Z,95.6
2017-03-18T04:20:15.384Z,95.5
2017-03-18T04:21:18.100Z,95.5
2017-03-18T04:22:21.200Z,95.5
2017-03-18T04:23:23.552Z,95.5
2017-03-18T04:24:25.907Z,95.6
2017-03-18T04:25:28.251Z,95.6
2017-03-18T04:26:30.965Z,95.6
2017-03-18T04:27:34.076Z,95.6
2017-03-18T04:28:36.431Z,95.6
2017-03-18T04:29:38.650Z,95.6
2017-03-18T04:30:41.508Z,95.6
2017-03-18T04:31:43.870Z,95.6
2017-03-18T04:32:46.468Z,95.6
2017-03-18T04:33:49.196Z,95.6
2017-03-18T04:34:51.553Z,95.6
2017-03-18T04:35:54.409Z,95.6
2017-03-18T04:36:56.752Z,95.6
2017-03-18T04:37:59.272Z,95.6
2017-03-18T04:39:02.126Z,95.6
2017-03-18T04:40:04.474Z,95.6
2017-03-18T04:41:06.827Z,95.6
2017-03-18T04:42:09.679Z,95.6
2017-03-18T04:43:12.327Z,95.6
2017-03-18T04:44:14.680Z,95.6
2017-03-18T04:45:17.538Z,95.6
2017-03-18T04:46:19.891Z,95.6
2017-03-18T04:47:22.244Z,95.6
2017-03-18T04:48:25.266Z,95.6
2017-03-18T04:49:27.485Z,95.6
2017-03-18T04:50:30.344Z,95.6
2017-03-18T04:51:32.695Z,95.6
2017-03-18T04:52:35.547Z,95.6
2017-03-18T04:53:38.201Z,95.6
2017-03-18T04:54:40.546Z,95.6
2017-03-18T04:55:42.894Z,95.6
2017-03-18T04:58:50.860Z,95.6
2017-03-18T04:59:53.075Z,95.6
2017-03-18T05:00:55.927Z,95.6
2017-03-18T05:01:58.283Z,95.6
2017-03-18T05:03:01.141Z,95.6
2017-03-18T05:04:03.741Z,95.5
2017-03-18T05:05:05.964Z,95.5
2017-03-18T05:06:08.818Z,95.6
2017-03-18T05:07:11.161Z,95.6
2017-03-18T05:08:14.016Z,95.6
2017-03-18T05:09:16.670Z,95.6
2017-03-18T05:10:18.894Z,95.6
2017-03-18T05:11:21.744Z,95.6
2017-03-18T05:12:24.096Z,95.6
2017-03-18T05:13:26.446Z,95.6
2017-03-18T05:14:29.476Z,95.5
2017-03-18T05:15:31.827Z,95.5
2017-03-18T05:16:34.171Z,95.5
2017-03-18T05:17:36.889Z,95.5
2017-03-18T05:18:39.744Z,95.5
2017-03-18T05:19:42.399Z,95.6
2017-03-18T05:20:44.747Z,95.6
2017-03-18T05:21:47.094Z,95.6
2017-03-18T05:22:49.952Z,95.5
2017-03-18T05:23:52.305Z,95.5
2017-03-18T05:25:58.420Z,95.5
2017-03-18T05:27:00.264Z,95.5
2017-03-18T05:28:02.477Z,95.5
2017-03-18T05:29:05.334Z,95.5
2017-03-18T05:30:07.679Z,95.5
2017-03-18T05:31:10.786Z,95.5
2017-03-18T05:33:15.537Z,95.6
2017-03-18T05:34:18.256Z,95.6
2017-03-18T05:35:20.612Z,95.6
2017-03-18T05:36:23.631Z,95.6
2017-03-18T05:37:25.915Z,95.6
2017-03-18T05:38:28.266Z,95.6
2017-03-18T05:39:30.990Z,95.6
2017-03-18T05:40:33.347Z,95.6
2017-03-18T05:41:36.367Z,95.6
2017-03-18T05:42:38.712Z,95.6
2017-03-18T05:43:41.067Z,95.6
2017-03-18T05:44:43.920Z,95.5
2017-03-18T05:45:46.268Z,95.6
2017-03-18T05:46:49.428Z,95.6
2017-03-18T05:47:51.838Z,95.6
2017-03-18T05:48:54.053Z,95.6
2017-03-18T05:49:56.777Z,95.6
2017-03-18T05:50:59.126Z,95.6
2017-03-18T05:53:04.498Z,95.5
2017-03-18T05:54:06.847Z,95.5
2017-03-18T05:55:09.698Z,95.5
2017-03-18T05:56:12.050Z,95.5
2017-03-18T05:57:14.965Z,95.5
2017-03-18T05:58:17.617Z,95.5
2017-03-18T05:59:19.965Z,95.5
2017-03-18T06:00:22.385Z,95.5
2017-03-18T06:01:24.968Z,95.5
2017-03-18T06:02:27.824Z,95.5
2017-03-18T06:03:30.479Z,95.5
2017-03-18T06:05:35.230Z,95.5
2017-03-18T06:06:38.078Z,95.5
2017-03-18T06:09:46.042Z,95.5
2017-03-18T06:10:48.394Z,95.5
2017-03-18T06:14:58.583Z,95.5
2017-03-18T06:16:01.344Z,95.5
2017-03-18T06:17:03.696Z,95.5
2017-03-18T06:18:06.050Z,95.5
2017-03-18T06:20:11.424Z,95.5
2017-03-18T06:21:13.770Z,95.5
2017-03-18T06:22:16.620Z,95.5
2017-03-18T06:23:19.337Z,95.5
2017-03-18T06:24:21.699Z,95.5
2017-03-18T06:25:24.184Z,95.5
2017-03-18T06:26:26.955Z,95.5
2017-03-18T06:27:29.672Z,95.5
2017-03-18T06:28:32.020Z,95.5
2017-03-18T06:29:34.873Z,95.5
2017-03-18T06:30:37.475Z,95.5
2017-03-18T06:31:39.825Z,95.5
2017-03-18T06:32:42.741Z,95.5
2017-03-18T06:33:45.095Z,95.5
2017-03-18T06:34:47.314Z,95.5
2017-03-18T06:35:50.415Z,95.5
2017-03-18T06:37:55.039Z,95.5
2017-03-18T06:38:57.620Z,95.5
2017-03-18T06:40:00.338Z,95.5
2017-03-18T06:41:02.912Z,95.5
2017-03-18T06:42:05.627Z,95.5
2017-03-18T06:43:07.972Z,95.5
2017-03-18T06:44:10.820Z,95.5
2017-03-18T06:45:13.168Z,95.5
2017-03-18T06:47:18.590Z,95.5
2017-03-18T06:48:20.936Z,95.5
2017-03-18T06:49:23.789Z,95.5
2017-03-18T06:50:26.140Z,95.5
2017-03-18T06:51:28.856Z,95.5
2017-03-18T06:52:31.542Z,95.5
2017-03-18T06:53:33.895Z,95.5
2017-03-18T06:54:36.246Z,95.5
2017-03-18T06:55:39.098Z,95.5
2017-03-18T06:56:41.446Z,95.5
2017-03-18T06:57:44.555Z,95.5
2017-03-18T06:58:46.910Z,95.5
2017-03-18T06:59:49.262Z,95.5
2017-03-18T07:00:52.116Z,95.5
2017-03-18T07:01:54.496Z,95.5
2017-03-18T07:02:57.650Z,95.5
2017-03-18T07:04:00.068Z,95.5
2017-03-18T07:05:02.417Z,95.5
2017-03-18T07:06:04.628Z,95.5
2017-03-18T07:07:07.342Z,95.4
2017-03-18T07:08:10.368Z,95.4
2017-03-18T07:09:12.721Z,95.4
2017-03-18T07:10:15.070Z,95.4
2017-03-18T07:11:17.918Z,95.4
2017-03-18T07:12:20.126Z,95.4
2017-03-18T07:13:22.964Z,95.4
2017-03-18T07:14:25.185Z,95.4
2017-03-18T07:15:28.038Z,95.4
2017-03-18T07:16:30.891Z,95.4
2017-03-18T07:17:33.241Z,95.4
2017-03-18T07:18:36.400Z,95.4
2017-03-18T07:19:38.118Z,95.4
2017-03-18T07:20:40.970Z,95.4
2017-03-18T07:21:43.825Z,95.4
2017-03-18T07:22:46.177Z,95.4
2017-03-18T07:23:48.884Z,95.4
2017-03-18T07:24:51.605Z,95.4
2017-03-18T07:25:54.095Z,95.4
2017-03-18T07:26:56.472Z,95.4
2017-03-18T07:27:59.331Z,95.4
2017-03-18T07:29:01.939Z,95.4
2017-03-18T07:30:04.292Z,95.4
2017-03-18T07:31:06.639Z,95.4
2017-03-18T07:32:09.488Z,95.4
2017-03-18T07:33:11.843Z,95.4
2017-03-18T07:34:15.054Z,95.4
2017-03-18T07:35:17.408Z,95.4
2017-03-18T07:36:19.619Z,95.4
2017-03-18T07:37:22.473Z,95.4
2017-03-18T07:38:24.825Z,95.4
2017-03-18T07:40:30.386Z,95.3
2017-03-18T07:41:32.599Z,95.4
2017-03-18T07:42:35.317Z,95.4
2017-03-18T07:43:37.671Z,95.4
2017-03-18T07:44:40.392Z,95.4
2017-03-18T07:45:43.358Z,95.4
2017-03-18T07:46:45.709Z,95.4
2017-03-18T07:47:48.431Z,95.3
2017-03-18T07:48:50.785Z,95.3
2017-03-18T07:49:53.132Z,95.3
2017-03-18T07:50:56.285Z,95.3
2017-03-18T07:51:58.495Z,95.3
2017-03-18T07:53:01.209Z,95.3
2017-03-18T07:54:03.560Z,95.3
2017-03-18T07:55:06.977Z,95.3
2017-03-18T07:56:09.125Z,95.3
2017-03-18T07:57:11.476Z,95.3
2017-03-18T07:58:14.326Z,95.3
2017-03-18T08:01:22.292Z,95.3
2017-03-18T08:02:24.648Z,95.3
2017-03-18T08:03:26.995Z,95.3
2017-03-18T08:04:29.850Z,95.3
2017-03-18T08:05:32.068Z,95.3
2017-03-18T08:06:35.171Z,95.3
2017-03-18T08:07:37.524Z,95.3
2017-03-18T08:09:42.781Z,95.3
2017-03-18T08:10:45.128Z,95.3
2017-03-18T08:11:48.230Z,95.3
2017-03-18T08:12:50.080Z,95.2
2017-03-18T08:13:52.936Z,95.2
2017-03-18T08:14:55.288Z,95.2
2017-03-18T08:15:58.137Z,95.2
2017-03-18T08:17:00.735Z,95.2
2017-03-18T08:18:03.083Z,95.2
2017-03-18T08:19:05.942Z,95.2
2017-03-18T08:20:08.296Z,95.2
2017-03-18T08:21:11.148Z,95.2
2017-03-18T08:22:13.802Z,95.2
2017-03-18T08:23:16.154Z,95.2
2017-03-18T08:24:19.008Z,95.2
2017-03-18T08:25:21.364Z,95.2
2017-03-18T08:26:24.210Z,95.2
2017-03-18T08:27:26.859Z,95.2
2017-03-18T08:28:29.217Z,95.2
2017-03-18T08:29:31.567Z,95.1
2017-03-18T08:30:34.154Z,95.1
2017-03-18T08:31:37.045Z,95.1
2017-03-18T08:33:42.468Z,95.1
2017-03-18T08:34:44.718Z,95.1
2017-03-18T08:35:47.583Z,95.1
2017-03-18T08:36:49.930Z,95.1
2017-03-18T08:37:52.783Z,95
2017-03-18T08:38:55.435Z,95
2017-03-18T08:39:57.653Z,95
2017-03-18T08:41:00.507Z,95
2017-03-18T08:42:02.855Z,95
2017-03-18T08:43:06.266Z,95
2017-03-18T08:45:10.824Z,94.9
2017-03-18T08:46:13.175Z,94.9
2017-03-18T08:48:18.305Z,94.9
2017-03-18T08:49:21.170Z,94.9
2017-03-18T08:50:23.775Z,94.8
2017-03-18T08:51:26.122Z,94.8
2017-03-18T08:52:28.970Z,94.8
2017-03-18T08:53:31.322Z,94.8
2017-03-18T08:54:34.178Z,94.8
2017-03-18T08:55:37.064Z,94.8
2017-03-18T08:56:39.415Z,94.7
2017-03-18T08:57:41.773Z,94.7
2017-03-18T08:58:44.501Z,94.7
2017-03-18T08:59:46.912Z,94.7
2017-03-18T09:00:50.067Z,94.7
2017-03-18T09:01:52.412Z,94.7
2017-03-18T09:02:54.758Z,94.7
2017-03-18T09:03:57.473Z,94.7
2017-03-18T09:05:00.335Z,94.7
2017-03-18T09:07:05.845Z,94.6
2017-03-18T09:08:08.200Z,94.6
2017-03-18T09:09:11.109Z,94.6
2017-03-18T09:10:12.953Z,94.6
2017-03-18T09:11:15.804Z,94.6
2017-03-18T09:12:18.457Z,94.6
2017-03-18T09:13:21.177Z,94.6
2017-03-18T09:14:23.543Z,94.5
2017-03-18T09:15:26.403Z,94.5
2017-03-18T09:16:28.747Z,94.5
2017-03-18T09:18:34.123Z,94.4
2017-03-18T09:20:39.252Z,94.4
2017-03-18T09:21:41.610Z,94.4
2017-03-18T09:23:47.122Z,94.4
2017-03-18T09:25:52.378Z,94.3
2017-03-18T09:26:54.726Z,94.3
2017-03-18T09:27:57.581Z,94.3
2017-03-18T09:29:00.467Z,94.2
2017-03-18T09:30:02.818Z,94.2
2017-03-18T09:31:05.402Z,94.2
2017-03-18T09:32:07.752Z,94.1
2017-03-18T09:34:13.372Z,94.1
2017-03-18T09:35:15.722Z,94
2017-03-18T09:36:18.573Z,94
2017-03-18T09:37:20.794Z,93.9
2017-03-18T09:38:23.645Z,93.9
2017-03-18T09:39:26.807Z,93.8
2017-03-18T09:40:28.655Z,93.8
2017-03-18T09:41:31.377Z,93.8
2017-03-18T09:42:34.230Z,93.8
2017-03-18T09:43:36.447Z,93.7
2017-03-18T09:44:39.603Z,93.7
2017-03-18T09:45:41.952Z,93.7
2017-03-18T09:46:44.668Z,93.6
2017-03-18T09:47:47.394Z,93.6
2017-03-18T09:48:49.753Z,93.6
2017-03-18T09:49:52.723Z,93.6
2017-03-18T09:50:55.135Z,93.5
2017-03-18T09:51:57.483Z,93.5
2017-03-18T09:53:00.337Z,93.5
2017-03-18T09:54:03.185Z,93.5
2017-03-18T09:55:06.347Z,93.5
2017-03-18T09:56:08.189Z,93.5
2017-03-18T09:57:11.043Z,93.5
2017-03-18T09:58:13.391Z,93.5
2017-03-18T09:59:16.246Z,93.5
2017-03-18T10:00:18.713Z,93.5
2017-03-18T10:01:21.564Z,93.4
2017-03-18T10:02:23.775Z,93.4
2017-03-18T10:03:26.560Z,93.4
2017-03-18T10:04:29.278Z,93.4
2017-03-18T10:05:31.928Z,93.4
2017-03-18T10:06:34.334Z,93.4
2017-03-18T10:07:37.189Z,93.4
2017-03-18T10:08:39.542Z,93.4
2017-03-18T10:09:42.259Z,93.5
2017-03-18T10:10:45.408Z,93.5
2017-03-18T10:11:47.759Z,93.5
2017-03-18T10:12:50.106Z,93.5
2017-03-18T10:14:55.231Z,93.5
2017-03-18T10:15:58.569Z,93.5
2017-03-18T10:17:00.785Z,93.5
2017-03-18T10:18:03.138Z,93.5
2017-03-18T10:19:05.858Z,93.5
2017-03-18T10:20:08.584Z,93.5
2017-03-18T10:22:14.375Z,93.6
2017-03-18T10:23:16.221Z,93.6
2017-03-18T10:24:19.075Z,93.6
2017-03-18T10:25:21.931Z,93.6
2017-03-18T10:26:24.151Z,93.6
2017-03-18T10:27:27.305Z,93.6
2017-03-18T10:28:29.656Z,93.6
2017-03-18T10:29:32.012Z,93.6
2017-03-18T10:30:34.900Z,93.6
2017-03-18T10:31:37.357Z,93.6
2017-03-18T10:32:40.464Z,93.6
2017-03-18T10:33:42.822Z,93.6
2017-03-18T10:35:48.082Z,93.6
2017-03-18T10:36:50.802Z,93.6
2017-03-18T10:37:53.483Z,93.6
2017-03-18T10:38:55.829Z,93.6
2017-03-18T10:39:58.551Z,93.6
2017-03-18T10:41:00.903Z,93.7
2017-03-18T10:42:03.630Z,93.7
2017-03-18T10:43:06.738Z,93.7
2017-03-18T10:44:09.091Z,93.7
2017-03-18T10:45:11.443Z,93.7
2017-03-18T10:46:14.302Z,93.6
2017-03-18T10:48:19.811Z,93.7
2017-03-18T10:49:22.163Z,93.7
2017-03-18T10:50:24.379Z,93.7
2017-03-18T10:51:27.232Z,93.7
2017-03-18T10:52:30.080Z,93.8
2017-03-18T10:53:32.680Z,93.8
2017-03-18T10:54:35.032Z,93.8
2017-03-18T10:55:37.885Z,93.8
2017-03-18T10:56:40.241Z,93.8
2017-03-18T10:58:46.025Z,93.9
2017-03-18T10:59:48.378Z,93.9
2017-03-18T11:00:50.790Z,93.9
2017-03-18T11:01:53.509Z,93.9
2017-03-18T11:02:56.357Z,93.9
2017-03-18T11:03:59.018Z,93.9
2017-03-18T11:05:01.369Z,93.9
2017-03-18T11:06:04.225Z,93.9
2017-03-18T11:07:06.570Z,94
2017-03-18T11:08:09.425Z,94
2017-03-18T11:09:12.080Z,94
2017-03-18T11:10:14.429Z,94
2017-03-18T11:11:17.287Z,94
2017-03-18T11:12:19.637Z,94
2017-03-18T11:13:22.501Z,94
2017-03-18T11:14:25.111Z,94
2017-03-18T11:15:27.865Z,94
2017-03-18T11:31:07.435Z,94
2017-03-18T11:38:25.534Z,94
2017-03-18T11:43:38.821Z,94
2017-03-18T11:45:43.573Z,94
2017-03-18T11:46:46.480Z,94
2017-03-18T11:48:52.045Z,94
2017-03-18T11:49:54.400Z,94
2017-03-18T11:50:56.617Z,94
2017-03-18T11:51:59.402Z,94
2017-03-18T11:53:02.266Z,94
2017-03-18T11:56:10.231Z,93.9
2017-03-18T11:57:12.578Z,93.9
2017-03-18T11:58:15.431Z,93.9
2017-03-18T11:59:17.782Z,93.9
2017-03-18T12:00:20.637Z,93.9
2017-03-18T12:01:23.789Z,93.9
2017-03-18T12:02:25.644Z,93.9
2017-03-18T12:03:28.499Z,93.9
2017-03-18T12:04:30.907Z,93.9
2017-03-18T12:06:36.470Z,94
2017-03-18T12:07:38.820Z,94
2017-03-18T12:16:00.331Z,94.1
2017-03-18T12:17:03.307Z,94.1
2017-03-18T12:18:05.154Z,94.1
2017-03-18T12:19:08.008Z,94.1
2017-03-18T12:20:10.731Z,94
2017-03-18T12:21:13.395Z,94
2017-03-18T12:22:15.739Z,94
2017-03-18T12:26:26.614Z,93.9
2017-03-18T12:27:28.969Z,93.8
2017-03-18T12:30:37.166Z,93.7
2017-03-18T12:31:39.816Z,93.7
2017-03-18T12:32:42.169Z,93.6
2017-03-18T12:33:45.077Z,93.6
2017-03-18T12:34:47.456Z,93.6
2017-03-18T12:35:50.310Z,93.5
2017-03-18T12:36:52.828Z,93.5
2017-03-18T12:37:55.680Z,93.5
2017-03-18T12:38:58.029Z,93.6
2017-03-18T12:40:00.748Z,93.6
2017-03-18T12:41:03.601Z,93.6
2017-03-18T12:43:09.168Z,93.6
2017-03-18T12:44:11.394Z,93.6
2017-03-18T12:45:13.743Z,93.5
2017-03-18T12:46:16.590Z,93.5
2017-03-18T12:47:19.382Z,93.5
2017-03-18T12:48:22.038Z,93.5
2017-03-18T12:49:24.450Z,93.5
2017-03-18T12:50:27.304Z,93.4
2017-03-18T12:51:30.020Z,93.4
2017-03-18T12:52:32.234Z,93.4
2017-03-18T12:53:35.337Z,93.4
2017-03-18T12:54:37.694Z,93.4
2017-03-18T12:55:40.552Z,93.4
2017-03-18T12:56:42.803Z,93.4
2017-03-18T12:57:45.656Z,93.5
2017-03-18T12:59:51.221Z,93.5
2017-03-18T13:00:53.569Z,93.5
2017-03-18T13:01:56.421Z,93.6
2017-03-18T13:04:01.544Z,93.7
2017-03-18T13:06:07.050Z,93.8
2017-03-18T13:09:14.520Z,94
2017-03-18T13:10:17.243Z,94
2017-03-18T13:11:20.346Z,94.1
2017-03-18T13:12:22.698Z,94.1
2017-03-18T13:13:25.414Z,94.2
2017-03-18T13:14:27.772Z,94.2
2017-03-18T13:15:30.619Z,94.2
2017-03-18T13:16:33.086Z,94.2
2017-03-18T13:17:35.939Z,94.2
2017-03-18T13:18:38.158Z,94.2
2017-03-18T13:20:43.922Z,94.3
2017-03-18T13:23:51.888Z,94.3
2017-03-18T13:24:54.247Z,94.3
2017-03-18T13:25:56.974Z,94.4
2017-03-18T13:26:59.695Z,94.4
2017-03-18T13:28:02.045Z,94.4
2017-03-18T13:29:05.155Z,94.4
2017-03-18T13:30:07.369Z,94.5
2017-03-18T13:33:15.532Z,94.5
2017-03-18T13:34:18.002Z,94.5
2017-03-18T13:35:21.416Z,94.6
2017-03-18T13:36:23.260Z,94.6
2017-03-18T13:37:25.985Z,94.6
2017-03-18T13:38:28.710Z,94.6
2017-03-18T13:39:31.363Z,94.6
2017-03-18T13:40:33.712Z,94.6
2017-03-18T13:41:36.620Z,94.6
2017-03-18T13:42:38.978Z,94.6
2017-03-18T13:43:41.897Z,94.5
2017-03-18T13:45:47.474Z,94.5
2017-03-18T13:48:54.643Z,94.5
2017-03-18T14:01:26.723Z,94.3
2017-03-18T14:02:29.073Z,94.3
2017-03-18T14:03:31.924Z,94.3
2017-03-18T14:04:34.274Z,94.3
2017-03-18T14:05:37.123Z,94.3
2017-03-18T14:06:39.775Z,94.3
2017-03-18T14:07:42.153Z,94.3
2017-03-18T14:08:45.002Z,94.3
2017-03-18T14:09:47.353Z,94.3
2017-03-18T14:10:50.202Z,94.3
2017-03-18T14:11:53.333Z,94.3
2017-03-18T14:13:58.091Z,94.3
2017-03-18T14:15:00.947Z,94.3
2017-03-18T14:16:03.306Z,94.3
2017-03-18T14:17:06.212Z,94.2
2017-03-18T14:18:08.565Z,94.2
2017-03-18T14:19:11.424Z,94.2
2017-03-18T14:20:13.778Z,94.2
2017-03-18T14:21:16.635Z,94.1
2017-03-18T14:24:24.928Z,94
2017-03-18T14:25:27.277Z,94
2017-03-18T14:26:29.382Z,93.9
2017-03-18T14:27:32.239Z,93.9
2017-03-18T14:28:34.960Z,93.9
2017-03-18T14:29:37.976Z,93.8
2017-03-18T14:30:40.329Z,93.8
2017-03-18T14:31:42.678Z,93.8
2017-03-18T14:32:45.530Z,93.7
2017-03-18T14:33:47.884Z,93.7
2017-03-18T14:34:50.990Z,93.6
2017-03-18T14:35:53.208Z,93.6
2017-03-18T14:36:56.060Z,93.5
2017-03-18T14:37:58.914Z,93.5
2017-03-18T14:39:01.132Z,93.4
2017-03-18T14:40:04.288Z,93.3
2017-03-18T14:41:06.365Z,93.3
2017-03-18T14:42:09.091Z,93.2
2017-03-18T14:43:11.809Z,93.2
2017-03-18T14:44:14.658Z,93.2
2017-03-18T14:45:17.314Z,93.1
2017-03-18T14:46:19.662Z,93.1
2017-03-18T14:47:22.516Z,93
2017-03-18T14:48:24.877Z,93
2017-03-18T14:49:27.735Z,93
2017-03-18T14:50:30.756Z,93
2017-03-18T14:51:33.103Z,92.9
2017-03-18T14:52:35.451Z,92.9
2017-03-18T14:53:38.309Z,92.9
2017-03-18T14:54:40.659Z,92.8
2017-03-18T14:55:43.810Z,92.8
2017-03-18T14:56:46.156Z,92.8
2017-03-18T14:57:48.510Z,92.8
2017-03-18T14:58:51.425Z,92.8
2017-03-18T14:59:54.145Z,92.7
2017-03-18T15:00:56.811Z,92.7
2017-03-18T15:01:59.156Z,92.7
2017-03-18T15:03:02.015Z,92.7
2017-03-18T15:04:04.369Z,92.7
2017-03-18T15:05:07.224Z,92.7
2017-03-18T15:06:10.333Z,92.7
2017-03-18T15:07:12.548Z,92.7
2017-03-18T15:09:17.538Z,92.7
2017-03-18T15:10:20.388Z,92.7
2017-03-18T15:11:23.540Z,92.7
2017-03-18T15:12:25.886Z,92.7
2017-03-18T15:13:28.099Z,92.7
2017-03-18T15:14:30.821Z,92.7
2017-03-18T15:15:33.430Z,92.7
2017-03-18T15:16:36.533Z,92.7
2017-03-18T15:18:41.341Z,92.7
2017-03-18T15:19:44.191Z,92.7
2017-03-18T15:20:46.540Z,92.7
2017-03-18T15:21:49.697Z,92.7
2017-03-18T15:22:51.918Z,92.7
2017-03-18T15:23:54.774Z,92.7
2017-03-18T15:24:57.495Z,92.7
2017-03-18T15:25:59.762Z,92.7
2017-03-18T15:27:02.866Z,92.7
2017-03-18T15:28:05.081Z,92.7
2017-03-18T15:29:07.937Z,92.6
2017-03-18T15:30:10.288Z,92.6
2017-03-18T15:31:13.006Z,92.6
2017-03-18T15:32:16.163Z,92.6
2017-03-18T15:33:18.389Z,92.6
2017-03-18T15:35:23.548Z,92.6
2017-03-18T15:36:26.404Z,92.6
2017-03-18T15:37:28.923Z,92.6
2017-03-18T15:38:31.644Z,92.6
2017-03-18T15:39:33.991Z,92.6
2017-03-18T15:40:36.844Z,92.6
2017-03-18T15:41:39.059Z,92.6
2017-03-18T15:42:42.216Z,92.6
2017-03-18T15:43:44.572Z,92.6
2017-03-18T15:44:47.426Z,92.6
2017-03-18T15:46:52.362Z,92.7
2017-03-18T15:47:55.337Z,92.7
2017-03-18T15:48:57.927Z,92.7
2017-03-18T15:50:00.556Z,92.7